Time;durP1;ratioP1;P1;durP2;ratioP2;P2;SDS_P1;SDS_P2;PMS_P1;PMS_P2;Temp;Humidity;BMP_temperature;BMP_pressure;BME280_temperature;BME280_humidity;BME280_pressure;Samples;Min_cycle;Max_cycle;Signal;HPM_P1;HPM_P2
2023/12/18 00:04:55;;;;;;;1999.90;999.90;;;;;;;11.42;66.60;103157.09;10456467;28;20132;-65
2023/12/18 00:09:58;;;;;;;1999.90;999.90;;;;;;;11.93;65.78;103150.63;10456041;28;20056;-65
2023/12/18 00:15:00;;;;;;;1999.90;999.90;;;;;;;11.70;67.21;103145.03;10456124;28;20538;-65
2023/12/18 00:20:03;;;;;;;1999.90;999.90;;;;;;;12.30;62.90;103140.00;10460470;28;20084;-65
2023/12/18 00:25:07;;;;;;;1999.90;999.90;;;;;;;11.78;65.19;103130.84;10463234;28;20481;-65
2023/12/18 00:30:10;;;;;;;1999.90;999.90;;;;;;;11.77;65.77;103129.09;10464539;28;20053;-65
2023/12/18 00:35:12;;;;;;;1999.90;999.90;;;;;;;11.89;66.00;103123.56;10464000;28;20048;-65
2023/12/18 00:40:14;;;;;;;1999.90;999.90;;;;;;;12.57;63.45;103119.97;10463943;28;20396;-65
2023/12/18 00:45:17;;;;;;;1999.90;999.90;;;;;;;11.76;66.48;103109.88;10463723;28;20191;-65
2023/12/18 00:50:19;;;;;;;1999.90;999.90;;;;;;;12.12;64.64;103096.75;10462350;28;20058;-65
2023/12/18 00:55:22;;;;;;;1999.90;999.90;;;;;;;12.22;66.08;103094.69;10463579;28;20060;-65
2023/12/18 01:00:25;;;;;;;1999.90;999.90;;;;;;;11.81;67.71;103102.75;10463195;28;20099;-65
2023/12/18 01:05:27;;;;;;;1999.90;999.90;;;;;;;12.86;63.85;103097.25;10463391;28;20080;-65
2023/12/18 01:10:29;;;;;;;1999.90;999.90;;;;;;;11.46;67.52;103109.75;10462526;28;20044;-65
2023/12/18 01:15:32;;;;;;;1999.90;999.90;;;;;;;12.37;65.26;103115.31;10462681;28;20049;-66
2023/12/18 01:20:34;;;;;;;1999.90;999.90;;;;;;;12.13;65.20;103119.47;10462275;28;20045;-65
2023/12/18 01:25:37;;;;;;;1999.90;999.90;;;;;;;11.64;66.57;103095.31;10462815;28;20158;-65
2023/12/18 01:30:39;;;;;;;1999.90;999.90;;;;;;;12.39;65.06;103100.38;10460332;28;20451;-65
2023/12/18 01:35:42;;;;;;;1999.90;999.90;;;;;;;11.71;66.87;103099.50;10461768;28;20111;-65
2023/12/18 01:40:44;;;;;;;1999.90;999.90;;;;;;;12.17;65.38;103101.84;10460423;28;20045;-65
2023/12/18 01:45:47;;;;;;;1999.90;999.90;;;;;;;11.79;66.64;103112.44;10461309;28;20052;-65
2023/12/18 01:50:49;;;;;;;1999.90;999.90;;;;;;;12.14;66.05;103104.56;10459828;28;20044;-65
2023/12/18 01:55:51;;;;;;;1999.90;999.90;;;;;;;12.06;66.08;103100.38;10459494;28;20084;-65
2023/12/18 02:00:54;;;;;;;1999.90;999.90;;;;;;;12.17;66.28;103093.97;10460948;28;20060;-65
2023/12/18 02:06:00;;;;;;;1999.90;999.90;;;;;;;11.96;66.94;103096.28;10460617;28;20048;-65
2023/12/18 02:11:02;;;;;;;1999.90;999.90;;;;;;;12.42;63.91;103094.13;10459042;28;20045;-65
2023/12/18 02:16:05;;;;;;;1999.90;999.90;;;;;;;11.70;66.83;103079.44;10460431;28;20171;-65
2023/12/18 02:21:07;;;;;;;1999.90;999.90;;;;;;;12.23;67.15;103085.94;10459789;28;20052;-65
2023/12/18 02:26:10;;;;;;;1999.90;999.90;;;;;;;12.18;66.28;103083.41;10459854;28;20048;-65
2023/12/18 02:31:14;;;;;;;1999.90;999.90;;;;;;;12.37;66.13;103082.91;10459401;28;20488;-65
2023/12/18 02:36:17;;;;;;;1999.90;999.90;;;;;;;12.04;64.36;103080.34;10459827;28;20049;-65
2023/12/18 02:41:19;;;;;;;1999.90;999.90;;;;;;;13.08;63.44;103080.78;10457482;28;20095;-65
2023/12/18 02:46:21;;;;;;;1999.90;999.90;;;;;;;11.81;66.36;103083.53;10458840;28;20049;-66
2023/12/18 02:51:24;;;;;;;1999.90;999.90;;;;;;;12.88;65.05;103081.41;10458379;28;20496;-65
2023/12/18 02:56:26;;;;;;;1999.90;999.90;;;;;;;12.28;65.81;103091.91;10458668;28;20060;-65
2023/12/18 03:01:28;;;;;;;1999.90;999.90;;;;;;;12.07;65.88;103085.50;10458244;28;20049;-65
2023/12/18 03:06:31;;;;;;;1999.90;999.90;;;;;;;12.43;66.49;103069.59;10458115;28;20053;-65
2023/12/18 03:11:33;;;;;;;1999.90;999.90;;;;;;;11.49;68.80;103066.84;10456711;28;20077;-65
2023/12/18 03:16:39;;;;;;;1999.90;999.90;;;;;;;12.64;66.22;103065.47;10457744;28;20055;-65
2023/12/18 03:21:41;;;;;;;1999.90;999.90;;;;;;;12.83;65.05;103066.66;10457582;28;20063;-65
2023/12/18 03:26:44;;;;;;;1999.90;999.90;;;;;;;12.50;66.48;103057.16;10457315;28;20463;-65
2023/12/18 03:31:46;;;;;;;1999.90;999.90;;;;;;;12.19;67.22;103066.78;10455973;28;20045;-66
2023/12/18 03:36:48;;;;;;;1999.90;999.90;;;;;;;12.57;68.23;103059.53;10457273;28;20063;-65
2023/12/18 03:41:51;;;;;;;1999.90;999.90;;;;;;;12.95;65.22;103048.78;10457027;28;20128;-65
2023/12/18 03:46:54;;;;;;;1999.90;999.90;;;;;;;12.64;65.78;103053.22;10456629;28;20444;-66
2023/12/18 03:51:57;;;;;;;1999.90;999.90;;;;;;;12.68;66.83;103058.38;10438849;28;20060;-65
2023/12/18 03:56:59;;;;;;;1999.90;999.90;;;;;;;11.90;68.13;103057.03;10456448;28;20127;-65
2023/12/18 04:02:01;;;;;;;1999.90;999.90;;;;;;;12.42;69.32;103066.13;10456570;28;20049;-66
2023/12/18 04:07:04;;;;;;;1999.90;999.90;;;;;;;12.53;66.07;103051.81;10456486;28;20059;-65
2023/12/18 04:12:06;;;;;;;1999.90;999.90;;;;;;;12.50;67.45;103068.50;10456086;28;20084;-65
2023/12/18 04:17:09;;;;;;;1999.90;999.90;;;;;;;11.90;70.83;103057.03;10456238;28;20064;-65
2023/12/18 04:22:11;;;;;;;1999.90;999.90;;;;;;;12.98;66.72;103046.91;10456023;28;20048;-65
2023/12/18 04:27:14;;;;;;;1999.90;999.90;;;;;;;12.59;67.03;103043.72;10455903;28;20128;-65
2023/12/18 04:32:17;;;;;;;1999.90;999.90;;;;;;;11.83;69.21;103047.59;10455708;28;20408;-65
2023/12/18 04:37:19;;;;;;;1999.90;999.90;;;;;;;12.73;67.57;103053.84;10456736;28;20095;-65
2023/12/18 04:42:22;;;;;;;1999.90;999.90;;;;;;;13.04;65.98;103048.47;10454620;28;20056;-65
2023/12/18 04:47:25;;;;;;;1999.90;999.90;;;;;;;12.43;67.88;103035.44;10455642;28;20081;-65
2023/12/18 04:52:27;;;;;;;1999.90;999.90;;;;;;;12.61;66.00;103036.69;10455395;28;20049;-65
2023/12/18 04:57:30;;;;;;;1999.90;999.90;;;;;;;12.77;67.67;103042.31;10454370;28;20056;-66
2023/12/18 05:02:32;;;;;;;1999.90;999.90;;;;;;;12.11;68.76;103037.25;10455427;28;20045;-65
2023/12/18 05:07:34;;;;;;;1999.90;999.90;;;;;;;12.84;67.66;103035.94;10461389;28;20051;-65
2023/12/18 05:12:37;;;;;;;1999.90;999.90;;;;;;;11.64;71.00;103049.84;10462466;28;20055;-65
2023/12/18 05:17:40;;;;;;;1999.90;999.90;;;;;;;12.24;66.61;103057.00;10462820;28;20053;-66
2023/12/18 05:22:42;;;;;;;1999.90;999.90;;;;;;;12.38;67.65;103034.72;10463304;28;20128;-65
2023/12/18 05:27:45;;;;;;;1999.90;999.90;;;;;;;12.58;67.21;103050.75;10461555;28;20397;-65
2023/12/18 05:32:47;;;;;;;1999.90;999.90;;;;;;;12.18;67.60;103048.44;10461572;28;20057;-65
2023/12/18 05:37:50;;;;;;;1999.90;999.90;;;;;;;12.83;68.28;103039.50;10461207;28;20053;-65
2023/12/18 05:42:52;;;;;;;1999.90;999.90;;;;;;;11.86;71.32;103035.25;10461855;28;20412;-66
2023/12/18 05:47:55;;;;;;;1999.90;999.90;;;;;;;12.26;68.32;103030.69;10461313;28;20084;-65
2023/12/18 05:52:57;;;;;;;1999.90;999.90;;;;;;;12.81;68.16;103036.06;10461020;28;20051;-65
2023/12/18 05:57:59;;;;;;;1999.90;999.90;;;;;;;12.78;67.76;103028.28;10460919;28;20063;-65
2023/12/18 06:03:02;;;;;;;1999.90;999.90;;;;;;;12.98;66.60;103027.66;10460804;28;20045;-65
2023/12/18 06:08:05;;;;;;;1999.90;999.90;;;;;;;11.71;70.91;103041.75;10460433;28;20397;-65
2023/12/18 06:13:07;;;;;;;1999.90;999.90;;;;;;;13.23;68.26;103038.22;10460322;28;20049;-65
2023/12/18 06:18:09;;;;;;;1999.90;999.90;;;;;;;12.39;67.84;103049.56;10459070;28;20060;-65
2023/12/18 06:23:12;;;;;;;1999.90;999.90;;;;;;;12.80;68.12;103035.19;10459865;28;20391;-65
2023/12/18 06:28:14;;;;;;;1999.90;999.90;;;;;;;11.96;69.60;103043.78;10459882;28;20055;-65
2023/12/18 06:33:17;;;;;;;1999.90;999.90;;;;;;;12.12;70.29;103051.22;10459508;28;20041;-65
2023/12/18 06:38:19;;;;;;;1999.90;999.90;;;;;;;12.62;70.38;103035.75;10459274;28;20561;-65
2023/12/18 06:43:22;;;;;;;1999.90;999.90;;;;;;;12.64;67.84;103031.31;10458989;28;20404;-65
2023/12/18 06:48:24;;;;;;;1999.90;999.90;;;;;;;12.62;68.83;103028.75;10457669;28;20128;-66
2023/12/18 06:53:27;;;;;;;1999.90;999.90;;;;;;;12.40;70.13;103028.50;10457519;28;20049;-65
2023/12/18 06:58:29;;;;;;;1999.90;999.90;;;;;;;12.18;70.41;103036.16;10458431;28;20443;-65
2023/12/18 07:03:31;;;;;;;1999.90;999.90;;;;;;;11.89;70.47;103037.78;10457342;28;20045;-65
2023/12/18 07:08:34;;;;;;;1999.90;999.90;;;;;;;11.73;72.16;103044.34;10458160;28;20045;-66
2023/12/18 07:13:36;;;;;;;1999.90;999.90;;;;;;;12.72;67.30;103031.09;10457818;28;20051;-65
2023/12/18 07:18:40;;;;;;;1999.90;999.90;;;;;;;12.49;70.21;103035.28;10457839;28;20049;-65
2023/12/18 07:23:43;;;;;;;1999.90;999.90;;;;;;;12.76;69.41;103032.69;10457607;28;20045;-65
2023/12/18 07:28:45;;;;;;;1999.90;999.90;;;;;;;11.75;71.98;103046.94;10457960;28;20098;-65
2023/12/18 07:33:48;;;;;;;1999.90;999.90;;;;;;;12.12;70.18;103052.09;10455977;28;20143;-65
2023/12/18 07:38:50;;;;;;;1999.90;999.90;;;;;;;12.13;69.44;103048.56;10456997;28;20080;-65
2023/12/18 07:43:53;;;;;;;1999.90;999.90;;;;;;;11.59;72.04;103038.63;10457060;28;20053;-65
2023/12/18 07:48:55;;;;;;;1999.90;999.90;;;;;;;12.67;69.55;103015.44;10455547;28;20053;-65
2023/12/18 07:53:58;;;;;;;1999.90;999.90;;;;;;;11.87;69.71;103023.00;10456582;28;20085;-65
2023/12/18 07:59:00;;;;;;;1999.90;999.90;;;;;;;11.77;70.18;103025.00;10457056;28;20083;-66
2023/12/18 08:04:03;;;;;;;1999.90;999.90;;;;;;;12.40;69.79;103022.41;10455165;28;20492;-66
2023/12/18 08:09:05;;;;;;;1999.90;999.90;;;;;;;12.47;69.07;103016.06;10455374;28;20049;-66
2023/12/18 08:14:07;;;;;;;1999.90;999.90;;;;;;;12.87;66.70;103001.69;10455007;28;20055;-66
2023/12/18 08:19:11;;;;;;;1999.90;999.90;;;;;;;12.43;69.64;103009.19;10455124;28;20048;-66
2023/12/18 08:24:14;;;;;;;1999.90;999.90;;;;;;;12.31;69.03;103013.03;10455934;28;20447;-65
2023/12/18 08:29:16;;;;;;;1999.90;999.90;;;;;;;12.52;70.02;103010.66;10456122;28;20053;-66
2023/12/18 08:34:18;;;;;;;1999.90;999.90;;;;;;;12.77;67.86;103009.00;10455815;28;20045;-66
2023/12/18 08:39:21;;;;;;;1999.90;999.90;;;;;;;12.88;67.55;103005.16;10457605;28;20053;-66
2023/12/18 08:44:25;;;;;;;1999.90;999.90;;;;;;;12.69;69.04;103004.88;10463732;28;20400;-66
2023/12/18 08:49:27;;;;;;;1999.90;999.90;;;;;;;12.06;70.29;103005.84;10463659;28;20068;-66
2023/12/18 08:54:30;;;;;;;1999.90;999.90;;;;;;;12.37;69.55;103002.34;10463361;28;20586;-65
2023/12/18 08:59:32;;;;;;;1999.90;999.90;;;;;;;12.18;70.11;103009.91;10463078;28;20404;-65
2023/12/18 09:04:34;;;;;;;1999.90;999.90;;;;;;;12.74;69.42;102998.59;10462981;28;20127;-65
2023/12/18 09:09:39;;;;;;;1999.90;999.90;;;;;;;12.52;69.15;103008.88;10468443;22;20049;-62
2023/12/18 09:14:42;;;;;;;1999.90;999.90;;;;;;;13.34;68.52;103001.91;10462264;28;20135;-61
2023/12/18 09:19:44;;;;;;;1999.90;999.90;;;;;;;12.96;66.63;103003.16;10461013;28;20045;-61
2023/12/18 09:24:46;;;;;;;1999.90;999.90;;;;;;;12.74;69.72;103005.59;10461827;28;20172;-61
2023/12/18 09:29:49;;;;;;;1999.90;999.90;;;;;;;13.32;66.23;103006.38;10461801;28;20045;-61
2023/12/18 09:34:51;;;;;;;1999.90;999.90;;;;;;;12.89;66.18;103013.00;10461311;28;20139;-61
2023/12/18 09:39:54;;;;;;;1999.90;999.90;;;;;;;12.70;68.64;103009.25;10461941;28;20052;-62
2023/12/18 09:44:58;;;;;;;1999.90;999.90;;;;;;;13.54;67.28;102997.75;10461455;28;20044;-61
2023/12/18 09:50:00;;;;;;;1999.90;999.90;;;;;;;12.96;68.80;103000.50;10459928;28;20385;-62
2023/12/18 09:55:04;;;;;;;1999.90;999.90;;;;;;;13.03;68.96;102988.91;10461000;28;20403;-61
2023/12/18 10:00:11;;;;;;;1999.90;999.90;;;;;;;13.17;68.11;102975.28;10460924;28;20079;-61
2023/12/18 10:05:15;;;;;;;1999.90;999.90;;;;;;;13.27;67.91;102968.81;10459661;28;20056;-62
2023/12/18 10:10:18;;;;;;;1999.90;999.90;;;;;;;12.79;68.97;102980.03;10459104;28;20561;-61
2023/12/18 10:15:21;;;;;;;1999.90;999.90;;;;;;;12.74;70.54;102960.91;10460455;28;20044;-61
2023/12/18 10:20:27;;;;;;;1999.90;999.90;;;;;;;12.78;69.74;102955.53;10460130;28;20060;-62
2023/12/18 10:25:31;;;;;;;1999.90;999.90;;;;;;;12.89;68.44;102957.78;10459418;28;20049;-61
2023/12/18 10:30:37;;;;;;;1999.90;999.90;;;;;;;13.14;67.15;102965.72;10459647;28;20412;-61
2023/12/18 10:35:39;;;;;;;1999.90;999.90;;;;;;;13.03;68.59;102962.63;10459271;28;20114;-61
2023/12/18 10:40:43;;;;;;;1999.90;999.90;;;;;;;13.51;66.94;102959.22;10459478;28;20063;-61
2023/12/18 10:45:47;;;;;;;1999.90;999.90;;;;;;;14.05;66.27;102946.72;10458614;28;20099;-62
2023/12/18 10:50:53;;;;;;;1999.90;999.90;;;;;;;13.56;65.41;102946.75;10458332;28;20428;-61
2023/12/18 10:55:56;;;;;;;1999.90;999.90;;;;;;;13.64;68.51;102925.44;10457598;28;20049;-61
2023/12/18 11:01:00;;;;;;;1999.90;999.90;;;;;;;13.86;66.95;102924.66;10457338;28;20236;-61
2023/12/18 11:06:02;;;;;;;1999.90;999.90;;;;;;;12.77;68.67;102921.41;10456882;28;20128;-61
2023/12/18 11:11:06;;;;;;;1999.90;999.90;;;;;;;14.41;65.86;102916.41;10457049;28;20061;-62
2023/12/18 11:16:11;;;;;;;1999.90;999.90;;;;;;;14.27;64.73;102904.63;10456631;28;20079;-61
2023/12/18 11:21:14;;;;;;;1999.90;999.90;;;;;;;13.62;66.52;102911.47;10458293;28;20491;-62
2023/12/18 11:26:18;;;;;;;1999.90;999.90;;;;;;;13.70;66.50;102898.03;10458150;28;20083;-61
2023/12/18 11:31:20;;;;;;;1999.90;999.90;;;;;;;13.86;66.63;102893.91;10456504;28;20053;-62
2023/12/18 11:36:23;;;;;;;1999.90;999.90;;;;;;;14.26;65.74;102895.00;10457166;28;20048;-62
2023/12/18 11:41:44;;;;;;;1999.90;999.90;;;;;;;13.62;66.01;102903.59;10456145;28;20048;-62
2023/12/18 11:46:50;;;;;;;1999.90;999.90;;;;;;;14.19;66.18;102890.91;10455826;28;20069;-62
2023/12/18 11:51:52;;;;;;;1999.90;999.90;;;;;;;13.69;66.15;102884.00;10456628;28;20403;-62
2023/12/18 11:56:55;;;;;;;1999.90;999.90;;;;;;;13.36;67.16;102873.81;10457263;28;20051;-61
2023/12/18 12:01:58;;;;;;;1999.90;999.90;;;;;;;14.08;66.42;102869.38;10456492;28;20120;-62
2023/12/18 12:07:01;;;;;;;1999.90;999.90;;;;;;;13.60;67.29;102855.41;10438640;28;20484;-62
2023/12/18 12:12:04;;;;;;;1999.90;999.90;;;;;;;13.64;65.31;102848.25;10456106;28;20565;-61
2023/12/18 12:17:07;;;;;;;1999.90;999.90;;;;;;;13.28;67.44;102861.81;10461391;28;20511;-62
2023/12/18 12:22:12;;;;;;;1999.90;999.90;;;;;;;14.29;65.07;102862.41;10464626;28;20068;-62
2023/12/18 12:27:14;;;;;;;1999.90;999.90;;;;;;;13.33;69.21;102836.22;10464718;28;20049;-62
2023/12/18 12:32:18;;;;;;;1999.90;999.90;;;;;;;13.60;67.97;102839.63;10464192;28;20123;-61
2023/12/18 12:37:22;;;;;;;1999.90;999.90;;;;;;;14.17;65.96;102834.78;10463907;28;20092;-62
2023/12/18 12:42:24;;;;;;;1999.90;999.90;;;;;;;13.51;68.06;102813.63;10463886;28;20051;-61
2023/12/18 12:47:27;;;;;;;1999.90;999.90;;;;;;;14.05;66.46;102833.47;10462941;28;20049;-62
2023/12/18 12:52:30;;;;;;;1999.90;999.90;;;;;;;14.11;65.91;102832.38;10462488;28;20053;-62
2023/12/18 12:57:32;;;;;;;1999.90;999.90;;;;;;;14.01;66.19;102823.97;10463381;28;20124;-61
2023/12/18 13:02:35;;;;;;;1999.90;999.90;;;;;;;13.90;66.32;102827.06;10462223;28;20052;-62
2023/12/18 13:07:37;;;;;;;1999.90;999.90;;;;;;;13.76;67.91;102810.94;10462765;28;20527;-61
2023/12/18 13:12:40;;;;;;;1999.90;999.90;;;;;;;13.16;68.08;102808.75;10462029;28;20480;-61
2023/12/18 13:17:42;;;;;;;1999.90;999.90;;;;;;;14.35;65.15;102804.16;10463039;28;20092;-62
2023/12/18 13:22:46;;;;;;;1999.90;999.90;;;;;;;14.45;64.91;102797.59;10462604;28;20048;-62
2023/12/18 13:27:48;;;;;;;1999.90;999.90;;;;;;;13.58;67.16;102788.78;10460677;28;20053;-62
2023/12/18 13:32:50;;;;;;;1999.90;999.90;;;;;;;13.01;69.80;102773.34;10461844;28;20369;-62
2023/12/18 13:37:53;;;;;;;1999.90;999.90;;;;;;;13.66;67.32;102765.66;10462090;28;20163;-62
2023/12/18 13:42:55;;;;;;;1999.90;999.90;;;;;;;14.23;64.41;102754.63;10461479;28;20115;-62
2023/12/18 13:47:58;;;;;;;1999.90;999.90;;;;;;;13.10;67.04;102755.50;10461742;28;20056;-61
2023/12/18 13:53:01;;;;;;;1999.90;999.90;;;;;;;12.91;66.30;102771.06;10461190;28;20041;-62
2023/12/18 13:58:03;;;;;;;1999.90;999.90;;;;;;;14.45;64.46;102781.78;10460942;28;20057;-61
2023/12/18 14:03:06;;;;;;;1999.90;999.90;;;;;;;14.36;64.17;102765.53;10460945;28;20048;-62
2023/12/18 14:08:08;;;;;;;1999.90;999.90;;;;;;;12.99;67.30;102762.03;10460489;28;20057;-61
2023/12/18 14:13:11;;;;;;;1999.90;999.90;;;;;;;13.13;65.92;102751.00;10460607;28;20086;-61
2023/12/18 14:18:13;;;;;;;1999.90;999.90;;;;;;;13.32;65.54;102737.19;10460237;28;20052;-62
2023/12/18 14:23:18;;;;;;;1999.90;999.90;;;;;;;13.07;67.96;102740.69;10460804;28;20049;-61
2023/12/18 14:28:22;;;;;;;1999.90;999.90;;;;;;;12.91;68.43;102742.16;10459981;28;20056;-61
2023/12/18 14:33:24;;;;;;;1999.90;999.90;;;;;;;12.98;68.99;102733.16;10459745;28;20048;-62
2023/12/18 14:38:28;;;;;;;1999.90;999.90;;;;;;;12.86;67.50;102739.72;10457334;28;20511;-62
2023/12/18 14:43:30;;;;;;;1999.90;999.90;;;;;;;12.33;70.07;102745.91;10459865;28;20084;-61
2023/12/18 14:48:32;;;;;;;1999.90;999.90;;;;;;;12.24;71.71;102749.72;10459243;28;20053;-61
2023/12/18 14:53:37;;;;;;;1999.90;999.90;;;;;;;11.95;67.79;102747.19;10459322;28;20045;-61
2023/12/18 14:58:40;;;;;;;1999.90;999.90;;;;;;;12.31;70.17;102765.28;10458595;28;20059;-61
2023/12/18 15:03:42;;;;;;;1999.90;999.90;;;;;;;11.93;70.25;102764.75;10440895;28;20123;-61
2023/12/18 15:08:44;;;;;;;1999.90;999.90;;;;;;;12.88;69.05;102747.53;10456875;28;20053;-61
2023/12/18 15:13:47;;;;;;;1999.90;999.90;;;;;;;12.56;68.58;102728.53;10458080;28;20131;-61
2023/12/18 15:18:50;;;;;;;1999.90;999.90;;;;;;;12.78;67.52;102729.47;10457849;28;20049;-62
2023/12/18 15:23:53;;;;;;;1999.90;999.90;;;;;;;12.91;68.19;102721.13;10458361;28;20060;-61
2023/12/18 15:28:55;;;;;;;1999.90;999.90;;;;;;;12.75;67.21;102740.09;10457525;28;20048;-61
2023/12/18 15:33:58;;;;;;;1999.90;999.90;;;;;;;11.17;73.50;102745.16;10457016;28;20049;-62
2023/12/18 15:39:04;;;;;;;1999.90;999.90;;;;;;;13.47;67.67;102733.97;10457451;28;20079;-61
2023/12/18 15:44:07;;;;;;;1999.90;999.90;;;;;;;12.24;68.79;102731.34;10456837;28;20488;-61
2023/12/18 15:49:09;;;;;;;1999.90;999.90;;;;;;;12.33;69.21;102726.69;10456713;28;20088;-61
2023/12/18 15:54:12;;;;;;;1999.90;999.90;;;;;;;12.79;68.56;102733.81;10456570;28;20076;-61
2023/12/18 15:59:14;;;;;;;1999.90;999.90;;;;;;;12.38;69.22;102732.63;10457140;28;20488;-62
2023/12/18 16:04:16;;;;;;;1999.90;999.90;;;;;;;12.47;69.77;102718.31;10456375;28;20049;-61
2023/12/18 16:09:19;;;;;;;1999.90;999.90;;;;;;;12.03;70.29;102718.91;10456238;28;20056;-61
2023/12/18 16:14:21;;;;;;;1999.90;999.90;;;;;;;11.94;69.99;102693.84;10456328;28;20049;-61
2023/12/18 16:19:24;;;;;;;1999.90;999.90;;;;;;;12.70;68.83;102686.84;10456660;28;20135;-61
2023/12/18 16:24:26;;;;;;;1999.90;999.90;;;;;;;12.11;69.35;102681.91;10456052;28;20515;-62
2023/12/18 16:29:29;;;;;;;1999.90;999.90;;;;;;;12.61;68.25;102682.78;10454962;28;20052;-62
2023/12/18 16:34:31;;;;;;;1999.90;999.90;;;;;;;12.19;71.65;102696.50;10455911;28;20056;-61
2023/12/18 16:39:40;;;;;;;1999.90;999.90;;;;;;;11.97;69.17;102683.22;10456019;28;20053;-61
2023/12/18 16:44:43;;;;;;;1999.90;999.90;;;;;;;12.27;70.63;102688.34;10454511;28;20132;-61
2023/12/18 16:49:49;;;;;;;1999.90;999.90;;;;;;;12.58;67.77;102696.00;10455638;28;20136;-62
2023/12/18 16:54:52;;;;;;;1999.90;999.90;;;;;;;11.67;72.51;102682.44;10455469;28;20044;-64
2023/12/18 16:59:55;;;;;;;1999.90;999.90;;;;;;;11.71;71.07;102686.66;10456383;28;20059;-65
2023/12/18 17:05:10;;;;;;;1999.90;999.90;;;;;;;11.04;71.60;102693.06;10462001;28;20405;-65
2023/12/18 17:10:13;;;;;;;1999.90;999.90;;;;;;;11.71;69.94;102682.25;10463002;28;20095;-64
2023/12/18 17:15:16;;;;;;;1999.90;999.90;;;;;;;11.38;73.37;102676.34;10462697;28;20045;-65
2023/12/18 17:20:18;;;;;;;1999.90;999.90;;;;;;;11.17;71.86;102695.34;10462547;28;20389;-65
2023/12/18 17:25:21;;;;;;;1999.90;999.90;;;;;;;11.39;70.23;102711.28;10462347;28;20045;-65
2023/12/18 17:30:23;;;;;;;1999.90;999.90;;;;;;;11.23;73.03;102727.47;10461077;28;20057;-64
2023/12/18 17:35:26;;;;;;;1999.90;999.90;;;;;;;11.66;69.32;102699.91;10461881;28;20111;-64
2023/12/18 17:40:28;;;;;;;1999.90;999.90;;;;;;;10.86;72.82;102676.13;10461963;28;20057;-65
2023/12/18 17:45:31;;;;;;;1999.90;999.90;;;;;;;11.18;71.62;102663.84;10461494;28;20488;-64
2023/12/18 17:50:33;;;;;;;1999.90;999.90;;;;;;;10.61;72.21;102665.47;10461495;28;20055;-64
2023/12/18 17:55:36;;;;;;;1999.90;999.90;;;;;;;11.72;70.08;102651.66;10461093;28;20055;-64
2023/12/18 18:00:39;;;;;;;1999.90;999.90;;;;;;;10.66;73.39;102657.47;10460923;28;20052;-64
2023/12/18 18:05:42;;;;;;;1999.90;999.90;;;;;;;10.96;73.35;102633.03;10460802;28;20124;-65
2023/12/18 18:10:46;;;;;;;1999.90;999.90;;;;;;;10.40;72.07;102646.81;10460832;28;20064;-64
2023/12/18 18:15:48;;;;;;;1999.90;999.90;;;;;;;10.74;70.70;102627.56;10460446;28;20411;-64
2023/12/18 18:20:51;;;;;;;1999.90;999.90;;;;;;;11.24;71.46;102621.69;10460144;28;20501;-64
2023/12/18 18:25:53;;;;;;;1999.90;999.90;;;;;;;10.57;73.19;102611.44;10460072;28;20124;-64
2023/12/18 18:30:56;;;;;;;1999.90;999.90;;;;;;;11.26;70.81;102629.50;10459775;28;20565;-64
2023/12/18 18:35:58;;;;;;;1999.90;999.90;;;;;;;11.11;72.06;102615.97;10459713;28;20128;-64
2023/12/18 18:41:01;;;;;;;1999.90;999.90;;;;;;;11.05;70.52;102620.53;10458202;28;20056;-64
2023/12/18 18:46:04;;;;;;;1999.90;999.90;;;;;;;10.94;72.19;102602.50;10459126;28;20051;-64
2023/12/18 18:51:07;;;;;;;1999.90;999.90;;;;;;;10.29;73.88;102587.75;10459110;28;20053;-64
2023/12/18 18:56:10;;;;;;;1999.90;999.90;;;;;;;10.63;72.88;102592.94;10458634;28;20081;-64
2023/12/18 19:01:12;;;;;;;1999.90;999.90;;;;;;;10.40;74.49;102590.97;10458769;28;20045;-64
2023/12/18 19:06:15;;;;;;;1999.90;999.90;;;;;;;10.93;71.33;102600.81;10458477;28;20049;-64
2023/12/18 19:11:17;;;;;;;1999.90;999.90;;;;;;;10.94;72.01;102611.25;10458533;28;20195;-64
2023/12/18 19:16:19;;;;;;;1999.90;999.90;;;;;;;10.78;70.52;102623.94;10458115;28;20048;-64
2023/12/18 19:21:23;;;;;;;1999.90;999.90;;;;;;;10.83;72.66;102594.13;10457727;28;20084;-64
2023/12/18 19:26:26;;;;;;;1999.90;999.90;;;;;;;10.06;73.17;102576.16;10457820;28;20045;-64
2023/12/18 19:31:32;;;;;;;1999.90;999.90;;;;;;;10.30;73.46;102579.84;10457460;28;20099;-64
2023/12/18 19:36:35;;;;;;;1999.90;999.90;;;;;;;10.66;73.03;102607.69;10456279;28;20057;-64
2023/12/18 19:41:37;;;;;;;1999.90;999.90;;;;;;;10.31;74.56;102618.22;10457105;28;20053;-64
2023/12/18 19:46:39;;;;;;;1999.90;999.90;;;;;;;9.56;75.32;102620.16;10457152;28;20044;-64
2023/12/18 19:51:42;;;;;;;1999.90;999.90;;;;;;;10.06;73.47;102585.78;10456884;28;20059;-64
2023/12/18 19:56:44;;;;;;;1999.90;999.90;;;;;;;10.64;73.21;102591.16;10456596;28;20057;-65
2023/12/18 20:01:47;;;;;;;1999.90;999.90;;;;;;;10.56;73.66;102570.47;10456842;28;20055;-64
2023/12/18 20:06:49;;;;;;;1999.90;999.90;;;;;;;10.69;72.10;102563.97;10457043;28;20075;-67
2023/12/18 20:11:52;;;;;;;1999.90;999.90;;;;;;;10.28;75.35;102579.03;10455174;28;20481;-67
2023/12/18 20:16:54;;;;;;;1999.90;999.90;;;;;;;10.33;74.76;102587.66;10456227;28;20084;-68
2023/12/18 20:21:56;;;;;;;1999.90;999.90;;;;;;;11.34;70.38;102599.50;10456200;28;20063;-67
2023/12/18 20:27:00;;;;;;;1999.90;999.90;;;;;;;10.15;73.84;102590.75;10456131;28;20080;-65
2023/12/18 20:32:02;;;;;;;1999.90;999.90;;;;;;;10.72;71.91;102570.84;10455926;28;20472;-64
2023/12/18 20:37:05;;;;;;;1999.90;999.90;;;;;;;10.53;70.63;102570.53;10460582;28;20060;-64
2023/12/18 20:42:07;;;;;;;1999.90;999.90;;;;;;;10.53;71.96;102592.34;10462948;28;20044;-64
2023/12/18 20:47:10;;;;;;;1999.90;999.90;;;;;;;10.32;74.03;102613.88;10464137;28;20073;-64
2023/12/18 20:52:12;;;;;;;1999.90;999.90;;;;;;;10.81;71.48;102594.16;10463927;28;20067;-64
2023/12/18 20:57:17;;;;;;;1999.90;999.90;;;;;;;9.91;73.09;102539.94;10463324;28;20053;-64
2023/12/18 21:02:20;;;;;;;1999.90;999.90;;;;;;;9.99;76.62;102538.81;10463378;28;20059;-64
2023/12/18 21:07:22;;;;;;;1999.90;999.90;;;;;;;10.81;71.95;102499.84;10463195;28;20055;-64
2023/12/18 21:12:25;;;;;;;1999.90;999.90;;;;;;;10.61;73.48;102513.56;10462782;28;20614;-64
2023/12/18 21:17:27;;;;;;;1999.90;999.90;;;;;;;10.75;73.06;102508.72;10463028;28;20092;-64
2023/12/18 21:22:30;;;;;;;1999.90;999.90;;;;;;;10.20;74.80;102499.88;10468782;22;20045;-65
2023/12/18 21:27:32;;;;;;;1999.90;999.90;;;;;;;10.08;75.98;102497.59;10462579;28;20045;-65
2023/12/18 21:32:35;;;;;;;1999.90;999.90;;;;;;;10.53;73.42;102484.13;10461058;28;20179;-65
2023/12/18 21:37:37;;;;;;;1999.90;999.90;;;;;;;10.51;74.25;102472.84;10462044;28;20041;-65
2023/12/18 21:42:40;;;;;;;1999.90;999.90;;;;;;;10.57;75.40;102481.38;10461703;28;20053;-65
2023/12/18 21:47:42;;;;;;;1999.90;999.90;;;;;;;10.91;74.04;102469.81;10461336;28;20045;-65
2023/12/18 21:52:45;;;;;;;1999.90;999.90;;;;;;;10.12;75.40;102452.13;10461487;28;20056;-65
2023/12/18 21:57:47;;;;;;;1999.90;999.90;;;;;;;10.94;73.21;102477.59;10461086;28;20084;-65